KJVL/JVL METAR and TAF weather

Enter ICAO airport designator
Station Type Date Time Source
KJVL METAR 2019/04/25 07:55 UTC NOAA

KJVL 250755Z AUTO 00000KT 10SM CLR 05/02 A2980 RMK AO2


Station Type Date Time Source
KJVL Decoded METAR 2019/04/25 07:55 UTC NOAA

Janesville / Rock County, WI, United States (KJVL) 42-37N 089-02W
Apr 25, 2019 - 03:55 AM EDT / 2019.04.25 0755 UTC
Wind: Calm:0
Visibility: 10 mile(s):0
Sky conditions: clear
Temperature: 41 F (5 C)
Dew Point: 35 F (2 C)
Relative Humidity: 80%
Pressure (altimeter): 29.8 in. Hg (1009 hPa)
ob: KJVL 250755Z AUTO 00000KT 10SM CLR 05/02 A2980 RMK AO2
cycle: 8

Station Type Date Time Source
KJVL TAF UTC NOAA

Error!

Example: see airport list